Terminal Aerodrome Forecast
Issued by NWS Omaha/Valley, NE

Current Version | Previous Version | Text Only | Print | Product List | Glossary On
Versions: 1 2 3 4 5 6 7 8 9 10 11 12 13 14 15 16 17 18 19 20 21 22 23 24 25 26
317
FTUS43 KOAX 282331
TAFOMA
TAF
KOMA 282331Z 2900/2924 30011KT P6SM SCT200
     FM290600 19005KT P6SM SCT200
     FM291500 18011KT P6SM VCTS BKN080CB
     FM292100 16007KT P6SM BKN130=

USA.gov is the U.S. government's official web portal to all federal, state and local government web resources and services.